createdAt,value
2023-03-22T00:01:49.325Z,29.90
2023-03-22T00:04:17.249Z,29.60
2023-03-22T00:06:45.331Z,30.60
2023-03-22T00:09:13.283Z,30.40
2023-03-22T00:11:41.210Z,31.20
2023-03-22T00:14:09.151Z,31.90
2023-03-22T00:16:37.168Z,30.80
2023-03-22T00:19:05.341Z,32.50
2023-03-22T00:21:33.348Z,33.10
2023-03-22T00:24:01.279Z,29.90
2023-03-22T00:26:29.908Z,32.50
2023-03-22T00:28:57.978Z,31.50
2023-03-22T00:31:25.973Z,34.80
2023-03-22T00:33:53.986Z,33.40
2023-03-22T00:36:22.178Z,31.10
2023-03-22T00:38:52.268Z,34.30
2023-03-22T00:41:22.622Z,31.00
2023-03-22T00:43:51.968Z,33.70
2023-03-22T00:46:21.907Z,31.50
2023-03-22T00:48:49.895Z,31.80
2023-03-22T00:51:18.227Z,32.60
2023-03-22T00:53:49.655Z,33.10
2023-03-22T00:56:18.908Z,33.50
2023-03-22T00:58:56.519Z,32.10
2023-03-22T01:01:24.576Z,33.00
2023-03-22T01:03:52.687Z,35.50
2023-03-22T01:06:21.608Z,31.50
2023-03-22T01:08:51.066Z,32.10
2023-03-22T01:11:19.266Z,31.70
2023-03-22T01:13:48.105Z,32.20
2023-03-22T01:16:16.830Z,34.70
2023-03-22T01:18:45.257Z,33.30
2023-03-22T01:21:13.455Z,34.10
2023-03-22T01:23:42.590Z,35.30
2023-03-22T01:26:10.642Z,36.60
2023-03-22T01:28:40.741Z,37.40
2023-03-22T01:31:08.707Z,40.00
2023-03-22T01:33:36.845Z,40.60
2023-03-22T01:36:05.383Z,41.10
2023-03-22T01:38:34.554Z,38.80
2023-03-22T01:41:03.487Z,40.50
2023-03-22T01:43:33.146Z,37.40
2023-03-22T01:46:01.303Z,36.60
2023-03-22T01:48:46.379Z,36.50
2023-03-22T01:51:25.454Z,39.00
2023-03-22T01:54:14.300Z,38.90
2023-03-22T01:56:42.466Z,38.00
2023-03-22T01:59:15.477Z,39.30
2023-03-22T02:02:07.312Z,40.50
2023-03-22T02:04:39.359Z,39.90
2023-03-22T02:07:15.498Z,39.30
2023-03-22T02:09:46.147Z,35.10
2023-03-22T02:12:50.830Z,37.70
2023-03-22T02:16:12.385Z,36.70
2023-03-22T02:19:14.609Z,39.40
2023-03-22T02:22:09.989Z,35.60
2023-03-22T02:25:04.121Z,34.50
2023-03-22T02:27:40.988Z,34.90
2023-03-22T02:30:09.277Z,32.40
2023-03-22T02:33:06.775Z,32.80
2023-03-22T02:35:46.183Z,30.40
2023-03-22T02:38:34.244Z,32.30
2023-03-22T02:44:09.373Z,31.50
2023-03-22T02:49:35.606Z,31.40
2023-03-22T02:52:26.178Z,28.60
2023-03-22T02:55:10.344Z,27.50
2023-03-22T02:57:42.674Z,26.20
2023-03-22T03:00:14.361Z,25.60
2023-03-22T03:02:48.640Z,24.40
2023-03-22T03:05:20.037Z,24.00
2023-03-22T03:07:52.483Z,24.40
2023-03-22T03:10:22.189Z,24.50
2023-03-22T03:12:50.553Z,24.60
2023-03-22T03:15:21.276Z,24.20
2023-03-22T03:18:14.318Z,23.80
2023-03-22T03:21:02.377Z,22.10
2023-03-22T03:23:42.330Z,23.80
2023-03-22T03:26:10.833Z,23.80
2023-03-22T03:28:49.863Z,23.90
2023-03-22T03:31:45.570Z,25.10
2023-03-22T03:34:19.760Z,26.20
2023-03-22T03:36:57.603Z,26.20
2023-03-22T03:39:30.866Z,24.70
2023-03-22T03:42:01.177Z,25.30
2023-03-22T03:44:31.337Z,24.90
2023-03-22T03:47:00.054Z,26.00
2023-03-22T03:49:28.293Z,25.90
2023-03-22T03:51:56.390Z,26.60
2023-03-22T03:54:24.636Z,26.60
2023-03-22T03:56:53.811Z,27.10
2023-03-22T03:59:21.988Z,27.50
2023-03-22T04:01:52.413Z,30.00
2023-03-22T04:04:29.639Z,27.60
2023-03-22T04:07:06.079Z,28.80
2023-03-22T04:09:38.316Z,28.70
2023-03-22T04:12:15.396Z,31.20
2023-03-22T04:14:46.236Z,29.90
2023-03-22T04:17:20.584Z,29.00
2023-03-22T04:19:49.466Z,29.50
2023-03-22T04:22:18.541Z,33.10
2023-03-22T04:24:50.226Z,32.60
2023-03-22T04:27:20.931Z,33.50
2023-03-22T04:29:58.114Z,32.90
2023-03-22T04:32:47.501Z,34.10
2023-03-22T04:35:17.268Z,32.00
2023-03-22T04:37:45.832Z,29.50
2023-03-22T04:40:17.351Z,30.10
2023-03-22T04:45:58.441Z,26.90
2023-03-22T04:48:32.584Z,30.00
2023-03-22T04:51:04.261Z,30.10
2023-03-22T04:53:40.652Z,29.80
2023-03-22T04:56:12.371Z,30.30
2023-03-22T04:58:42.201Z,30.30
2023-03-22T05:01:13.133Z,29.80
2023-03-22T05:03:43.088Z,30.20
2023-03-22T05:06:12.087Z,28.80
2023-03-22T05:09:10.738Z,31.40
2023-03-22T05:11:40.613Z,36.10
2023-03-22T05:14:21.783Z,40.40
2023-03-22T05:16:49.815Z,36.40
2023-03-22T05:19:18.603Z,35.60
2023-03-22T05:21:48.949Z,38.70
2023-03-22T05:24:16.914Z,39.30
2023-03-22T05:26:46.367Z,38.40
2023-03-22T05:29:14.541Z,42.50
2023-03-22T05:32:01.584Z,40.50
2023-03-22T05:34:35.698Z,41.90
2023-03-22T05:37:11.634Z,42.60
2023-03-22T05:39:49.502Z,38.60
2023-03-22T05:42:18.175Z,40.70
2023-03-22T05:44:47.019Z,41.30
2023-03-22T05:47:14.994Z,40.70
2023-03-22T05:49:54.231Z,38.50
2023-03-22T05:52:23.915Z,49.60
2023-03-22T05:55:07.387Z,50.70
2023-03-22T05:57:35.772Z,49.50
2023-03-22T06:00:13.628Z,37.20
2023-03-22T06:02:48.539Z,31.60
2023-03-22T06:05:19.828Z,31.90
2023-03-22T06:07:48.798Z,30.50
2023-03-22T06:10:18.319Z,28.60
2023-03-22T06:12:46.721Z,27.70
2023-03-22T06:15:22.273Z,29.60
2023-03-22T06:18:04.071Z,30.60
2023-03-22T06:20:35.770Z,29.10
2023-03-22T06:23:08.988Z,27.20
2023-03-22T06:25:37.392Z,30.10
2023-03-22T06:28:08.552Z,28.20
2023-03-22T06:30:37.938Z,26.60
2023-03-22T06:33:28.839Z,28.00
2023-03-22T06:36:02.121Z,28.60
2023-03-22T06:38:58.843Z,29.20
2023-03-22T06:41:27.164Z,27.50
2023-03-22T06:43:55.298Z,26.60
2023-03-22T06:46:43.749Z,28.80
2023-03-22T06:49:19.683Z,28.50
2023-03-22T06:51:47.713Z,28.90
2023-03-22T06:54:16.820Z,27.30
2023-03-22T06:56:45.833Z,28.70
2023-03-22T06:59:13.835Z,26.50
2023-03-22T07:01:41.982Z,27.30
2023-03-22T07:04:11.849Z,24.70
2023-03-22T07:06:40.288Z,27.90
2023-03-22T07:09:08.519Z,26.50
2023-03-22T07:11:37.123Z,26.30
2023-03-22T07:14:05.535Z,26.80
2023-03-22T07:16:55.005Z,24.30
2023-03-22T07:19:24.219Z,27.50
2023-03-22T07:21:52.204Z,29.60
2023-03-22T07:24:23.369Z,27.50
2023-03-22T07:26:51.465Z,26.00
2023-03-22T07:29:22.787Z,26.50
2023-03-22T07:31:51.260Z,23.90
2023-03-22T07:34:29.260Z,24.80
2023-03-22T07:37:11.017Z,25.30
2023-03-22T07:39:39.060Z,21.30
2023-03-22T07:42:08.038Z,23.10
2023-03-22T07:44:54.786Z,22.00
2023-03-22T07:47:40.060Z,25.40
2023-03-22T07:50:29.241Z,24.30
2023-03-22T07:52:58.240Z,25.60
2023-03-22T07:55:26.639Z,26.90
2023-03-22T07:57:55.046Z,26.70
2023-03-22T08:00:24.170Z,26.90
2023-03-22T08:03:01.871Z,26.80
2023-03-22T08:05:59.018Z,24.10
2023-03-22T08:08:27.486Z,27.10
2023-03-22T08:10:55.682Z,27.50
2023-03-22T08:13:24.298Z,27.40
2023-03-22T08:15:52.613Z,24.80
2023-03-22T08:18:23.931Z,30.80
2023-03-22T08:20:56.535Z,28.10
2023-03-22T08:23:40.505Z,28.50
2023-03-22T08:26:29.206Z,28.10
2023-03-22T08:28:59.932Z,27.40
2023-03-22T08:31:31.812Z,25.10
2023-03-22T08:34:00.339Z,26.70
2023-03-22T08:36:29.193Z,25.20
2023-03-22T08:39:03.931Z,23.50
2023-03-22T08:41:42.121Z,23.30
2023-03-22T08:44:10.476Z,23.80
2023-03-22T08:46:38.470Z,18.80
2023-03-22T08:49:07.164Z,17.50
2023-03-22T08:51:50.796Z,17.20
2023-03-22T08:54:35.302Z,15.90
2023-03-22T08:57:09.610Z,13.40
2023-03-22T09:00:06.830Z,13.10
2023-03-22T09:02:44.992Z,13.40
2023-03-22T09:05:14.416Z,14.60
2023-03-22T09:07:42.958Z,15.80
2023-03-22T09:10:18.140Z,14.90
2023-03-22T09:12:48.375Z,11.30
2023-03-22T09:15:16.588Z,12.00
2023-03-22T09:17:47.358Z,11.80
2023-03-22T09:20:16.210Z,12.50
2023-03-22T09:22:45.091Z,13.70
2023-03-22T09:25:14.793Z,13.50
2023-03-22T09:27:44.605Z,14.50
2023-03-22T09:30:13.125Z,13.90
2023-03-22T09:32:41.465Z,13.40
2023-03-22T09:35:09.906Z,13.20
2023-03-22T09:37:53.488Z,10.90
2023-03-22T09:40:32.047Z,9.30
2023-03-22T09:43:04.885Z,10.90
2023-03-22T09:45:39.881Z,9.40
2023-03-22T09:48:20.059Z,6.60
2023-03-22T09:50:53.652Z,6.50
2023-03-22T09:53:25.413Z,7.40
2023-03-22T09:56:06.698Z,7.20
2023-03-22T09:58:49.995Z,10.30
2023-03-22T10:01:24.289Z,7.30
2023-03-22T10:04:21.548Z,4.80
2023-03-22T10:06:59.989Z,4.80
2023-03-22T10:09:55.197Z,5.70
2023-03-22T10:12:31.037Z,4.50
2023-03-22T10:15:24.276Z,5.70
2023-03-22T10:17:54.512Z,5.40
2023-03-22T10:20:34.727Z,7.50
2023-03-22T10:23:06.501Z,6.90
2023-03-22T10:25:38.590Z,6.00
2023-03-22T10:28:16.301Z,7.30
2023-03-22T10:30:51.065Z,8.00
2023-03-22T10:33:31.506Z,8.90
2023-03-22T10:36:02.341Z,8.80
2023-03-22T10:38:32.407Z,10.60
2023-03-22T10:41:02.135Z,8.20
2023-03-22T10:43:37.169Z,7.50
2023-03-22T10:46:09.187Z,8.40
2023-03-22T10:48:41.896Z,7.80
2023-03-22T10:51:19.789Z,9.20
2023-03-22T10:53:50.571Z,9.00
2023-03-22T10:56:20.311Z,8.20
2023-03-22T10:58:50.226Z,9.50
2023-03-22T11:01:37.413Z,9.40
2023-03-22T11:04:16.059Z,9.00
2023-03-22T11:06:55.640Z,9.30
2023-03-22T11:09:24.785Z,10.00
2023-03-22T11:11:57.584Z,10.60
2023-03-22T11:14:42.136Z,11.80
2023-03-22T11:17:15.000Z,10.40
2023-03-22T11:20:16.004Z,11.00
2023-03-22T11:22:47.203Z,10.70
2023-03-22T11:25:27.371Z,11.70
2023-03-22T11:28:06.099Z,9.70
2023-03-22T11:30:34.925Z,11.10
2023-03-22T11:33:08.975Z,11.60
2023-03-22T11:35:39.378Z,12.10
2023-03-22T11:38:32.122Z,10.30
2023-03-22T11:41:08.406Z,11.40
2023-03-22T11:43:48.510Z,11.70
2023-03-22T11:46:21.202Z,12.30
2023-03-22T11:51:43.312Z,10.70
2023-03-22T11:54:23.512Z,11.60
2023-03-22T11:56:52.437Z,12.40
2023-03-22T11:59:30.518Z,13.10
2023-03-22T12:02:06.824Z,11.60
2023-03-22T12:04:40.061Z,11.60
2023-03-22T12:07:16.716Z,11.20
2023-03-22T12:10:13.652Z,11.90
2023-03-22T12:13:08.314Z,11.70
2023-03-22T12:15:41.187Z,13.80
2023-03-22T12:18:19.249Z,11.70
2023-03-22T12:20:59.731Z,11.90
2023-03-22T12:23:31.160Z,11.70
2023-03-22T12:26:14.545Z,11.30
2023-03-22T12:29:04.934Z,9.90
2023-03-22T12:31:39.124Z,10.80
2023-03-22T12:34:13.651Z,10.00
2023-03-22T12:36:54.912Z,9.40
2023-03-22T12:39:28.853Z,10.70
2023-03-22T12:42:04.037Z,9.90
2023-03-22T12:44:46.441Z,11.40
2023-03-22T12:47:43.886Z,10.90
2023-03-22T12:50:27.900Z,10.10
2023-03-22T12:52:58.727Z,8.60
2023-03-22T12:55:31.987Z,8.60
2023-03-22T12:58:01.556Z,7.60
2023-03-22T13:00:58.407Z,8.30
2023-03-22T13:03:45.361Z,7.80
2023-03-22T13:06:55.848Z,7.10
2023-03-22T13:09:47.878Z,7.70
2023-03-22T13:12:16.583Z,7.90
2023-03-22T13:14:51.192Z,7.30
2023-03-22T13:17:25.497Z,7.10
2023-03-22T13:19:59.473Z,8.50
2023-03-22T13:22:30.663Z,7.00
2023-03-22T13:25:23.816Z,6.80
2023-03-22T13:27:53.211Z,6.10
2023-03-22T13:30:33.116Z,8.20
2023-03-22T13:33:10.555Z,7.70
2023-03-22T13:35:51.118Z,7.20
2023-03-22T13:38:24.738Z,8.30
2023-03-22T13:40:59.474Z,8.80
2023-03-22T13:43:32.860Z,7.90
2023-03-22T13:46:13.165Z,7.90
2023-03-22T13:48:54.969Z,6.30
2023-03-22T13:51:26.346Z,6.90
2023-03-22T13:54:19.211Z,7.10
2023-03-22T13:56:53.367Z,8.30
2023-03-22T13:59:31.630Z,7.80
2023-03-22T14:02:49.845Z,7.70
2023-03-22T14:05:43.263Z,8.40
2023-03-22T14:08:24.480Z,7.10
2023-03-22T14:10:58.662Z,8.60
2023-03-22T14:13:34.925Z,8.40
2023-03-22T14:16:39.434Z,8.80
2023-03-22T14:19:16.502Z,8.80
